Wenatchee, WA (98801)

5:42 AM PDT on September 27, 2016 (GMT -0700)
3rd & Princeton | | Change Station

Elev 755 ft 47.43 °N, 120.33 °W | Updated 7 seconds ago

Clear
Clear
66.7 °F
Feels Like 66.7 °F
N
3.2
Wind Variable Wind from WNW

Today
High -- | Low -- °F
--% Chance of Precip.
Yesterday
High -- | Low -- °F
Precip. -- in
Pressure 29.95 in
Visibility 10.0 miles
Clouds Clear
Dew Point 52 °F
Humidity 58%
Rainfall 0.00 in
Snow Depth Not available.
6:55 AM 6:47 PM
Waning Crescent, 12% visible
METAR KEAT 271155Z AUTO 28009KT 10SM CLR 19/09 A2997 RMK AO2 SLP141 T01890094 10222 20172 51004
Pressure 29.95 in
Visibility 10.0 miles
Clouds Clear
Dew Point 52 °F
Humidity 58%
Rainfall 0.00 in
Snow Depth Not available.
6:55 AM 6:47 PM
Waning Crescent, 12% visible
METAR KEAT 271155Z AUTO 28009KT 10SM CLR 19/09 A2997 RMK AO2 SLP141 T01890094 10222 20172 51004

10-Day Weather Forecast

Almanac

Astronomy

Sep. 27, 2016 Rise Set
Actual Time
Civil Twilight
Nautical Twilight
Astronomical Twilight
Moon
Length of Visible Light
Length of Day
Tomorrow will be .
, % of the Moon is Illuminated

Today's Extremes

State Highs State Lows

Community

WunderPhotos

Upload Photos

1,942,074 photos uploaded!

WunderBlog® & News

Nearby

Air Quality

  Air Quality AQ Index Pollutant
Not available.

Snow Depth

Station Depth Elevation

Earthquake Activity

City Distance Mag. Time & Date
Minimum magnitude displayed is 2.5.

Coastal Water Temperatures

Place Temperature

Stations

Nearby Weather Stations

Station Location Temp. Windchill Dew Point Humidity Wind Precip. Elev Updated Type
                   

Watches & Warnings

There are currently no watches in effect.